Time;durP1;ratioP1;P1;durP2;ratioP2;P2;SDS_P1;SDS_P2;PMS_P1;PMS_P2;Temp;Humidity;BMP_temperature;BMP_pressure;BME280_temperature;BME280_humidity;BME280_pressure;Samples;Min_cycle;Max_cycle;Signal;HPM_P1;HPM_P2
2023/08/29 00:01:44;;;;;;;0.60;0.60;;;;;;;;;;7388876;19;20381;-94
2023/08/29 00:04:22;;;;;;;0.40;0.40;;;;;;;;;;7391329;19;20868;-93
2023/08/29 00:07:03;;;;;;;0.32;0.32;;;;;;;;;;7386134;19;20711;-94
2023/08/29 00:12:52;;;;;;;0.50;0.50;;;;;;;;;;7392168;19;20362;-93
2023/08/29 00:15:35;;;;;;;0.50;0.50;;;;;;;;;;7388665;19;20372;-93
2023/08/29 00:18:02;;;;;;;0.35;0.35;;;;;;;;;;7389448;19;20337;-93
2023/08/29 00:20:29;;;;;;;0.30;0.30;;;;;;;;;;7393780;19;20333;-92
2023/08/29 00:22:56;;;;;;;0.40;0.40;;;;;;;;;;7394350;19;20356;-93
2023/08/29 00:25:23;;;;;;;0.30;0.30;;;;;;;;;;7394759;19;20360;-93
2023/08/29 00:27:49;;;;;;;0.40;0.40;;;;;;;;;;7394406;19;20416;-92
2023/08/29 00:30:16;;;;;;;0.40;0.40;;;;;;;;;;7393276;19;20368;-92
2023/08/29 00:32:43;;;;;;;0.20;0.20;;;;;;;;;;7390929;19;20416;-93
2023/08/29 00:35:09;;;;;;;0.80;0.50;;;;;;;;;;7394378;19;20351;-92
2023/08/29 00:37:36;;;;;;;0.50;0.50;;;;;;;;;;7391915;19;20369;-93
2023/08/29 00:40:03;;;;;;;0.30;0.30;;;;;;;;;;7396296;19;20362;-92
2023/08/29 00:42:30;;;;;;;0.40;0.40;;;;;;;;;;7394570;19;20368;-93
2023/08/29 00:44:57;;;;;;;0.40;0.40;;;;;;;;;;7391684;19;20884;-92
2023/08/29 00:47:24;;;;;;;0.35;0.35;;;;;;;;;;7385973;19;20357;-93
2023/08/29 00:49:51;;;;;;;0.52;0.52;;;;;;;;;;7393562;19;20348;-92
2023/08/29 00:52:18;;;;;;;0.35;0.35;;;;;;;;;;7391722;19;20360;-92
2023/08/29 00:54:45;;;;;;;0.40;0.40;;;;;;;;;;7393743;19;20381;-93
2023/08/29 00:57:11;;;;;;;0.55;0.55;;;;;;;;;;7395544;19;20411;-92
2023/08/29 00:59:38;;;;;;;0.30;0.30;;;;;;;;;;7395616;19;20351;-93
2023/08/29 01:02:05;;;;;;;0.43;0.43;;;;;;;;;;7389984;19;20349;-92
2023/08/29 01:04:32;;;;;;;0.60;0.60;;;;;;;;;;7393762;19;20368;-92
2023/08/29 01:06:58;;;;;;;0.32;0.32;;;;;;;;;;7393003;19;20424;-92
2023/08/29 01:09:25;;;;;;;0.40;0.40;;;;;;;;;;7391342;19;20912;-92
2023/08/29 01:12:09;;;;;;;0.40;0.40;;;;;;;;;;7389611;19;20360;-93
2023/08/29 01:14:54;;;;;;;0.40;0.40;;;;;;;;;;7391421;19;20373;-94
2023/08/29 01:17:34;;;;;;;0.50;0.50;;;;;;;;;;7388629;19;20714;-93
2023/08/29 01:20:02;;;;;;;0.50;0.50;;;;;;;;;;7388260;19;20344;-93
2023/08/29 01:22:32;;;;;;;0.40;0.40;;;;;;;;;;7388380;19;20364;-93
2023/08/29 01:25:05;;;;;;;0.40;0.40;;;;;;;;;;7390128;19;20361;-93
2023/08/29 01:27:32;;;;;;;0.40;0.40;;;;;;;;;;7392519;19;20341;-93
2023/08/29 01:30:00;;;;;;;0.40;0.40;;;;;;;;;;7390042;19;20922;-93
2023/08/29 01:32:27;;;;;;;0.50;0.50;;;;;;;;;;7391286;19;20444;-94
2023/08/29 01:34:53;;;;;;;0.40;0.40;;;;;;;;;;7397789;19;20360;-92
2023/08/29 01:37:28;;;;;;;0.50;0.50;;;;;;;;;;7394553;19;20361;-93
2023/08/29 01:39:55;;;;;;;0.40;0.40;;;;;;;;;;7389367;19;20357;-93
2023/08/29 01:42:22;;;;;;;0.55;0.55;;;;;;;;;;7390254;19;20376;-93
2023/08/29 01:44:49;;;;;;;0.30;0.30;;;;;;;;;;7385163;19;20360;-93
2023/08/29 01:47:15;;;;;;;0.32;0.32;;;;;;;;;;7387828;19;20352;-94
2023/08/29 01:49:42;;;;;;;0.50;0.50;;;;;;;;;;7386796;19;20364;-93
2023/08/29 01:52:09;;;;;;;0.40;0.40;;;;;;;;;;7384563;19;20401;-93
2023/08/29 01:54:36;;;;;;;0.30;0.30;;;;;;;;;;7388231;19;20361;-93
2023/08/29 01:57:04;;;;;;;0.47;0.47;;;;;;;;;;7388864;19;20352;-92
2023/08/29 01:59:31;;;;;;;0.30;0.30;;;;;;;;;;7388910;19;20345;-93
2023/08/29 02:02:02;;;;;;;0.38;0.38;;;;;;;;;;7388765;19;20715;-93
2023/08/29 02:04:29;;;;;;;0.50;0.50;;;;;;;;;;7388996;19;20372;-93
2023/08/29 02:06:59;;;;;;;0.30;0.30;;;;;;;;;;7385868;19;20361;-94
2023/08/29 02:09:25;;;;;;;0.40;0.40;;;;;;;;;;7385580;19;20352;-93
2023/08/29 02:12:06;;;;;;;0.60;0.60;;;;;;;;;;7385290;19;20353;-93
2023/08/29 02:14:34;;;;;;;0.30;0.30;;;;;;;;;;7384559;19;20425;-93
2023/08/29 02:17:00;;;;;;;0.50;0.50;;;;;;;;;;7387523;19;20419;-93
2023/08/29 02:19:28;;;;;;;0.38;0.38;;;;;;;;;;7385877;19;20348;-93
2023/08/29 02:21:55;;;;;;;0.40;0.40;;;;;;;;;;7383293;19;20356;-93
2023/08/29 02:24:22;;;;;;;0.40;0.40;;;;;;;;;;7386384;19;20380;-93
2023/08/29 02:26:49;;;;;;;0.60;0.55;;;;;;;;;;7387572;19;20376;-93
2023/08/29 02:29:18;;;;;;;0.40;0.40;;;;;;;;;;7386186;19;20400;-94
2023/08/29 02:31:49;;;;;;;0.50;0.50;;;;;;;;;;7387274;19;20934;-93
2023/08/29 02:34:16;;;;;;;0.40;0.40;;;;;;;;;;7385109;19;20363;-94
2023/08/29 02:36:43;;;;;;;0.30;0.30;;;;;;;;;;7385504;19;20352;-93
2023/08/29 02:39:10;;;;;;;1.30;0.60;;;;;;;;;;7385004;19;20381;-93
2023/08/29 02:41:37;;;;;;;0.50;0.50;;;;;;;;;;7383925;19;20356;-94
2023/08/29 02:44:04;;;;;;;0.32;0.32;;;;;;;;;;7387086;19;20352;-93
2023/08/29 02:46:31;;;;;;;0.30;0.30;;;;;;;;;;7385478;19;20353;-93
2023/08/29 02:48:58;;;;;;;0.30;0.30;;;;;;;;;;7386638;19;20412;-92
2023/08/29 02:51:24;;;;;;;0.40;0.40;;;;;;;;;;7386189;19;20361;-92
2023/08/29 02:53:51;;;;;;;0.60;0.60;;;;;;;;;;7390962;19;20369;-92
2023/08/29 02:56:19;;;;;;;0.30;0.30;;;;;;;;;;7404089;19;20827;-93
2023/08/29 02:59:13;;;;;;;0.50;0.50;;;;;;;;;;7413851;19;20364;-92
2023/08/29 03:02:00;;;;;;;0.40;0.40;;;;;;;;;;7417803;19;20794;-92
2023/08/29 03:04:56;;;;;;;0.60;0.60;;;;;;;;;;7399628;19;20389;-92
2023/08/29 03:07:34;;;;;;;0.35;0.35;;;;;;;;;;7393833;19;20365;-92
2023/08/29 03:10:01;;;;;;;0.60;0.60;;;;;;;;;;7395453;19;20811;-92
2023/08/29 03:12:33;;;;;;;0.40;0.40;;;;;;;;;;7395633;19;20348;-91
2023/08/29 03:15:02;;;;;;;0.35;0.35;;;;;;;;;;7393167;19;20341;-93
2023/08/29 03:17:33;;;;;;;0.40;0.40;;;;;;;;;;7390521;19;20445;-92
2023/08/29 03:20:01;;;;;;;0.30;0.30;;;;;;;;;;7394555;19;21016;-92
2023/08/29 03:22:50;;;;;;;0.50;0.50;;;;;;;;;;7391240;19;20928;-93
2023/08/29 03:25:40;;;;;;;0.60;0.60;;;;;;;;;;7388715;19;20365;-92
2023/08/29 03:28:21;;;;;;;0.40;0.40;;;;;;;;;;7390783;19;20873;-92
2023/08/29 03:31:15;;;;;;;;;;;;;;;;;;;;;
2023/08/29 03:33:48;;;;;;;0.32;0.32;;;;;;;;;;7389919;19;20348;-92
2023/08/29 04:11:44;;;;;;;;;;;;;;;;;;;;;
2023/08/29 04:14:41;;;;;;;0.30;0.30;;;;;;;;;;7421264;19;20909;-96
2023/08/29 04:17:08;;;;;;;0.43;0.40;;;;;;;;;;7417396;19;20341;-96
2023/08/29 04:19:56;;;;;;;0.60;0.60;;;;;;;;;;7425561;19;20345;-96
2023/08/29 04:22:22;;;;;;;0.80;0.80;;;;;;;;;;7419961;19;20357;-95
2023/08/29 04:24:53;;;;;;;0.40;0.40;;;;;;;;;;7419502;19;20345;-96
2023/08/29 04:27:38;;;;;;;0.60;0.60;;;;;;;;;;7417444;19;20353;-96
2023/08/29 04:30:18;;;;;;;0.45;0.45;;;;;;;;;;7418232;19;20317;-96
2023/08/29 04:32:59;;;;;;;0.30;0.30;;;;;;;;;;7422843;19;20293;-96
2023/08/29 04:35:28;;;;;;;0.57;0.57;;;;;;;;;;7422380;19;20350;-96
2023/08/29 04:38:22;;;;;;;0.47;0.47;;;;;;;;;;7426306;19;20339;-96
2023/08/29 04:41:12;;;;;;;0.47;0.47;;;;;;;;;;7422490;19;20345;-96
2023/08/29 04:43:54;;;;;;;0.30;0.30;;;;;;;;;;7424782;19;20362;-96
2023/08/29 04:47:41;;;;;;;;;;;;;;;;;;;;;
2023/08/29 04:54:43;;;;;;;0.40;0.40;;;;;;;;;;7424394;19;20327;-96
2023/08/29 04:57:57;;;;;;;;;;;;;;;;;;;;;
2023/08/29 05:00:54;;;;;;;0.57;0.57;;;;;;;;;;7420918;19;20332;-96
2023/08/29 05:12:57;;;;;;;0.70;0.70;;;;;;;;;;7396298;19;20373;-91
2023/08/29 05:32:14;;;;;;;;;;;;;;;;;;;;;
2023/08/29 05:38:49;;;;;;;0.60;0.60;;;;;;;;;;7382911;19;20352;-91
2023/08/29 05:41:28;;;;;;;0.63;0.63;;;;;;;;;;7392085;19;20352;-90
2023/08/29 05:44:16;;;;;;;0.40;0.40;;;;;;;;;;7392176;19;20781;-89
2023/08/29 05:47:27;;;;;;;0.40;0.40;;;;;;;;;;7390558;19;20702;-89
2023/08/29 05:49:55;;;;;;;0.40;0.40;;;;;;;;;;7389849;19;20357;-90
2023/08/29 05:55:39;;;;;;;0.40;0.40;;;;;;;;;;7384162;19;20360;-90
2023/08/29 05:58:05;;;;;;;0.30;0.30;;;;;;;;;;7383068;19;20349;-88
2023/08/29 06:00:33;;;;;;;0.68;0.68;;;;;;;;;;7385580;19;20937;-88
2023/08/29 06:03:04;;;;;;;0.50;0.50;;;;;;;;;;7386485;19;20413;-88
2023/08/29 06:05:36;;;;;;;0.30;0.30;;;;;;;;;;7385345;19;20924;-88
2023/08/29 06:08:03;;;;;;;0.50;0.50;;;;;;;;;;7387614;19;20355;-87
2023/08/29 06:10:44;;;;;;;0.70;0.70;;;;;;;;;;7390038;19;20380;-87
2023/08/29 06:13:11;;;;;;;0.30;0.30;;;;;;;;;;7389862;19;20328;-88
2023/08/29 06:15:38;;;;;;;0.73;0.73;;;;;;;;;;7393280;19;20440;-88
2023/08/29 06:18:04;;;;;;;0.35;0.35;;;;;;;;;;7390016;19;20351;-88
2023/08/29 06:20:31;;;;;;;2.20;0.70;;;;;;;;;;7386799;19;20344;-87
2023/08/29 06:22:58;;;;;;;0.52;0.52;;;;;;;;;;7387962;19;20334;-88
2023/08/29 06:25:25;;;;;;;0.38;0.38;;;;;;;;;;7387350;19;20353;-87
2023/08/29 06:27:52;;;;;;;0.90;0.90;;;;;;;;;;7387949;19;20707;-87
2023/08/29 06:30:18;;;;;;;0.40;0.40;;;;;;;;;;7389548;19;20491;-88
2023/08/29 06:32:45;;;;;;;0.50;0.50;;;;;;;;;;7394860;19;20419;-88
2023/08/29 06:35:12;;;;;;;0.60;0.60;;;;;;;;;;7394206;19;20897;-86
2023/08/29 06:37:39;;;;;;;0.40;0.40;;;;;;;;;;7391323;19;20344;-90
2023/08/29 06:40:09;;;;;;;0.32;0.32;;;;;;;;;;7393176;19;20364;-88
2023/08/29 06:42:39;;;;;;;0.57;0.57;;;;;;;;;;7400040;19;20435;-87
2023/08/29 06:45:08;;;;;;;0.40;0.40;;;;;;;;;;7396379;19;20442;-87
2023/08/29 06:47:34;;;;;;;0.50;0.50;;;;;;;;;;7392813;19;20792;-87
2023/08/29 06:50:01;;;;;;;1.00;0.60;;;;;;;;;;7393697;19;20364;-86
2023/08/29 06:52:28;;;;;;;0.30;0.30;;;;;;;;;;7396156;19;20372;-88
2023/08/29 06:54:55;;;;;;;0.73;0.73;;;;;;;;;;7390261;19;20360;-86
2023/08/29 06:57:21;;;;;;;0.70;0.70;;;;;;;;;;7391284;19;20352;-87
2023/08/29 06:59:53;;;;;;;0.40;0.40;;;;;;;;;;7393130;19;20388;-88
2023/08/29 07:02:23;;;;;;;0.50;0.50;;;;;;;;;;7390648;19;20719;-87
2023/08/29 07:04:49;;;;;;;0.50;0.50;;;;;;;;;;7394411;19;20357;-87
2023/08/29 07:07:17;;;;;;;0.40;0.40;;;;;;;;;;7396430;19;20829;-86
2023/08/29 07:09:46;;;;;;;0.40;0.40;;;;;;;;;;7395154;19;20356;-86
2023/08/29 07:12:14;;;;;;;0.77;0.77;;;;;;;;;;7392016;19;20385;-85
2023/08/29 07:14:40;;;;;;;1.55;0.40;;;;;;;;;;7393511;19;20987;-86
2023/08/29 07:17:10;;;;;;;0.60;0.60;;;;;;;;;;7399258;19;20360;-86
2023/08/29 07:19:40;;;;;;;0.63;0.63;;;;;;;;;;7392356;19;20351;-86
2023/08/29 07:22:37;;;;;;;0.50;0.50;;;;;;;;;;7394957;19;20912;-86
2023/08/29 07:25:17;;;;;;;0.30;0.30;;;;;;;;;;7394683;19;20845;-86
2023/08/29 07:27:51;;;;;;;0.57;0.57;;;;;;;;;;7396125;19;20366;-86
2023/08/29 07:30:19;;;;;;;0.57;0.57;;;;;;;;;;7390640;19;20381;-86
2023/08/29 07:32:48;;;;;;;0.35;0.35;;;;;;;;;;7392891;19;20479;-86
2023/08/29 07:35:16;;;;;;;0.40;0.40;;;;;;;;;;7393567;19;20353;-86
2023/08/29 07:37:51;;;;;;;0.80;0.50;;;;;;;;;;7394953;19;20355;-86
2023/08/29 07:40:43;;;;;;;0.50;0.50;;;;;;;;;;7393330;19;20817;-87
2023/08/29 07:43:14;;;;;;;0.30;0.30;;;;;;;;;;7394661;19;20976;-88
2023/08/29 07:45:41;;;;;;;0.60;0.60;;;;;;;;;;7396093;19;20892;-88
2023/08/29 07:48:08;;;;;;;0.50;0.50;;;;;;;;;;7397460;19;20361;-89
2023/08/29 07:50:37;;;;;;;0.50;0.50;;;;;;;;;;7396751;19;20352;-87
2023/08/29 07:53:06;;;;;;;0.50;0.50;;;;;;;;;;7398456;19;20353;-88
2023/08/29 07:55:33;;;;;;;0.47;0.47;;;;;;;;;;7395823;19;20369;-88
2023/08/29 07:58:10;;;;;;;1.45;0.88;;;;;;;;;;7397344;19;20361;-87
2023/08/29 08:00:37;;;;;;;0.70;0.50;;;;;;;;;;7393931;19;20425;-86
2023/08/29 08:03:04;;;;;;;0.60;0.60;;;;;;;;;;7394548;19;20348;-86
2023/08/29 08:05:31;;;;;;;0.40;0.40;;;;;;;;;;7396699;19;20363;-86
2023/08/29 08:07:59;;;;;;;0.35;0.35;;;;;;;;;;7396238;19;20865;-86
2023/08/29 08:10:26;;;;;;;0.40;0.40;;;;;;;;;;7396331;19;20577;-86
2023/08/29 08:12:53;;;;;;;0.43;0.43;;;;;;;;;;7393662;19;20352;-89
2023/08/29 08:15:20;;;;;;;0.70;0.70;;;;;;;;;;7392400;19;20377;-89
2023/08/29 08:17:47;;;;;;;0.40;0.40;;;;;;;;;;7390727;19;20344;-89
2023/08/29 08:20:14;;;;;;;0.40;0.40;;;;;;;;;;7392739;19;20352;-90
2023/08/29 08:22:41;;;;;;;0.40;0.40;;;;;;;;;;7396710;19;20357;-90
2023/08/29 08:25:09;;;;;;;0.40;0.40;;;;;;;;;;7411900;19;20417;-86
2023/08/29 08:27:40;;;;;;;0.50;0.50;;;;;;;;;;7419487;19;20353;-90
2023/08/29 08:30:10;;;;;;;0.50;0.50;;;;;;;;;;7414841;19;20369;-87
2023/08/29 08:32:37;;;;;;;0.50;0.50;;;;;;;;;;7397836;19;20373;-90
2023/08/29 08:35:05;;;;;;;0.70;0.40;;;;;;;;;;7391916;19;20360;-90
2023/08/29 08:37:34;;;;;;;1.20;1.13;;;;;;;;;;7390963;19;20348;-90
2023/08/29 08:40:01;;;;;;;0.40;0.40;;;;;;;;;;7388108;19;20680;-90
2023/08/29 08:42:28;;;;;;;0.40;0.40;;;;;;;;;;7389232;19;20489;-89
2023/08/29 08:44:55;;;;;;;0.60;0.60;;;;;;;;;;7389840;19;20348;-89
2023/08/29 08:47:22;;;;;;;0.73;0.73;;;;;;;;;;7391995;19;20369;-89
2023/08/29 08:49:49;;;;;;;0.47;0.47;;;;;;;;;;7390641;19;20753;-89
2023/08/29 08:52:15;;;;;;;0.40;0.40;;;;;;;;;;7392637;19;20419;-89
2023/08/29 08:54:42;;;;;;;0.40;0.40;;;;;;;;;;7389180;19;20377;-89
2023/08/29 08:57:11;;;;;;;0.63;0.63;;;;;;;;;;7390255;19;20924;-86
2023/08/29 08:59:38;;;;;;;1.00;1.00;;;;;;;;;;7395088;19;20381;-88
2023/08/29 09:02:10;;;;;;;0.50;0.50;;;;;;;;;;7391385;19;20347;-86
2023/08/29 09:04:37;;;;;;;0.50;0.50;;;;;;;;;;7402939;19;20364;-89
2023/08/29 09:07:03;;;;;;;0.70;0.60;;;;;;;;;;7392051;19;20348;-89
2023/08/29 09:09:30;;;;;;;0.65;0.65;;;;;;;;;;7392118;19;20333;-88
2023/08/29 09:11:57;;;;;;;0.60;0.50;;;;;;;;;;7391730;19;20369;-89
2023/08/29 09:14:25;;;;;;;0.50;0.50;;;;;;;;;;7393980;19;20391;-89
2023/08/29 09:16:56;;;;;;;0.60;0.60;;;;;;;;;;7392361;19;20357;-89
2023/08/29 09:19:23;;;;;;;0.50;0.50;;;;;;;;;;7392021;19;20761;-86
2023/08/29 09:21:51;;;;;;;0.38;0.38;;;;;;;;;;7396641;19;20694;-88
2023/08/29 09:24:36;;;;;;;0.32;0.32;;;;;;;;;;7395601;19;20369;-88
2023/08/29 09:27:09;;;;;;;0.70;0.70;;;;;;;;;;7394693;19;20332;-88
2023/08/29 09:29:36;;;;;;;0.50;0.50;;;;;;;;;;7390732;19;20452;-90
2023/08/29 09:32:13;;;;;;;0.50;0.50;;;;;;;;;;7387709;19;20348;-88
2023/08/29 09:34:41;;;;;;;0.35;0.35;;;;;;;;;;7389348;19;20368;-90
2023/08/29 09:37:10;;;;;;;0.30;0.30;;;;;;;;;;7386426;19;20347;-89
2023/08/29 09:39:38;;;;;;;0.50;0.50;;;;;;;;;;7388350;19;20708;-89
2023/08/29 09:42:06;;;;;;;5.20;0.50;;;;;;;;;;7389917;19;20437;-90
2023/08/29 09:44:37;;;;;;;0.40;0.40;;;;;;;;;;7389756;19;20380;-90
2023/08/29 09:47:05;;;;;;;0.30;0.30;;;;;;;;;;7393187;19;20341;-87
2023/08/29 09:49:42;;;;;;;0.50;0.50;;;;;;;;;;7404662;19;20343;-87
2023/08/29 09:52:10;;;;;;;0.60;0.60;;;;;;;;;;7406505;19;20357;-87
2023/08/29 09:54:48;;;;;;;0.40;0.40;;;;;;;;;;7405574;19;20360;-87
2023/08/29 09:57:18;;;;;;;0.40;0.40;;;;;;;;;;7390342;19;20402;-87
2023/08/29 09:59:45;;;;;;;0.35;0.35;;;;;;;;;;7393912;19;20365;-85
2023/08/29 10:02:13;;;;;;;0.50;0.50;;;;;;;;;;7392123;19;20332;-85
2023/08/29 10:04:44;;;;;;;0.40;0.40;;;;;;;;;;7391172;19;20703;-86
2023/08/29 10:07:24;;;;;;;0.43;0.43;;;;;;;;;;7396104;19;20388;-87
2023/08/29 10:09:51;;;;;;;0.50;0.50;;;;;;;;;;7394269;19;20348;-86
2023/08/29 10:12:19;;;;;;;1.10;0.50;;;;;;;;;;7396327;19;20356;-87
2023/08/29 10:14:46;;;;;;;0.30;0.30;;;;;;;;;;7400250;19;20714;-87
2023/08/29 10:17:13;;;;;;;0.57;0.47;;;;;;;;;;7396730;19;20922;-86
2023/08/29 10:19:58;;;;;;;0.40;0.40;;;;;;;;;;7395082;19;20348;-86
2023/08/29 10:22:28;;;;;;;0.40;0.40;;;;;;;;;;7394985;19;20356;-87
2023/08/29 10:24:57;;;;;;;0.47;0.47;;;;;;;;;;7393499;19;20340;-86
2023/08/29 10:27:24;;;;;;;0.30;0.30;;;;;;;;;;7398546;19;20444;-86
2023/08/29 10:29:50;;;;;;;1.60;0.45;;;;;;;;;;7394612;19;20339;-85
2023/08/29 10:32:17;;;;;;;0.50;0.50;;;;;;;;;;7395457;19;20689;-84
2023/08/29 10:34:44;;;;;;;0.35;0.35;;;;;;;;;;7396230;19;20340;-84
2023/08/29 10:37:18;;;;;;;0.40;0.40;;;;;;;;;;7394445;19;20360;-86
2023/08/29 10:39:45;;;;;;;0.40;0.40;;;;;;;;;;7397590;19;20756;-86
2023/08/29 10:42:13;;;;;;;2.13;0.40;;;;;;;;;;7391519;19;20336;-85
2023/08/29 10:44:43;;;;;;;0.40;0.40;;;;;;;;;;7394207;19;20435;-85
2023/08/29 10:47:20;;;;;;;0.50;0.50;;;;;;;;;;7390735;19;20395;-86
2023/08/29 10:49:48;;;;;;;0.30;0.30;;;;;;;;;;7395660;19;20420;-87
2023/08/29 10:52:18;;;;;;;0.30;0.30;;;;;;;;;;7392015;19;20446;-87
2023/08/29 10:54:45;;;;;;;0.20;0.20;;;;;;;;;;7390944;19;20375;-88
2023/08/29 10:57:28;;;;;;;0.30;0.30;;;;;;;;;;7387650;19;20398;-86
2023/08/29 10:59:56;;;;;;;0.40;0.40;;;;;;;;;;7394920;19;20365;-88
2023/08/29 11:02:27;;;;;;;0.60;0.55;;;;;;;;;;7394843;19;20372;-87
2023/08/29 11:05:03;;;;;;;0.30;0.30;;;;;;;;;;7395808;19;20363;-87
2023/08/29 11:07:31;;;;;;;0.40;0.40;;;;;;;;;;7396782;19;20333;-87
2023/08/29 11:10:14;;;;;;;0.50;0.50;;;;;;;;;;7393760;19;21005;-87
2023/08/29 11:13:06;;;;;;;0.40;0.40;;;;;;;;;;7394202;19;20357;-84
2023/08/29 11:15:48;;;;;;;0.50;0.50;;;;;;;;;;7393496;19;20344;-86
2023/08/29 11:18:26;;;;;;;0.40;0.40;;;;;;;;;;7383551;19;20357;-87
2023/08/29 11:20:55;;;;;;;0.30;0.30;;;;;;;;;;7386275;19;20465;-86
2023/08/29 11:23:22;;;;;;;0.35;0.35;;;;;;;;;;7397339;19;20373;-85
2023/08/29 11:25:52;;;;;;;0.40;0.40;;;;;;;;;;7397156;19;20659;-87
2023/08/29 11:28:19;;;;;;;0.60;0.60;;;;;;;;;;7385017;19;20353;-88
2023/08/29 11:30:46;;;;;;;0.43;0.43;;;;;;;;;;7392307;19;20362;-87
2023/08/29 11:33:14;;;;;;;0.30;0.30;;;;;;;;;;7394135;19;20344;-85
2023/08/29 11:35:42;;;;;;;0.47;0.47;;;;;;;;;;7393713;19;20372;-87
2023/08/29 11:38:09;;;;;;;0.40;0.40;;;;;;;;;;7393838;19;20345;-88
2023/08/29 11:40:36;;;;;;;0.20;0.20;;;;;;;;;;7394721;19;20373;-88
2023/08/29 11:43:24;;;;;;;0.20;0.20;;;;;;;;;;7398532;19;20880;-88
2023/08/29 11:46:11;;;;;;;0.25;0.25;;;;;;;;;;7395944;19;20336;-91
2023/08/29 11:48:38;;;;;;;0.60;0.40;;;;;;;;;;7392544;19;20889;-90
2023/08/29 11:51:07;;;;;;;0.38;0.38;;;;;;;;;;7397598;19;20348;-89
2023/08/29 11:53:37;;;;;;;0.40;0.40;;;;;;;;;;7394443;19;20365;-89
2023/08/29 11:56:05;;;;;;;0.30;0.30;;;;;;;;;;7399656;19;20360;-88
2023/08/29 11:58:33;;;;;;;0.40;0.40;;;;;;;;;;7398413;19;20344;-88
2023/08/29 12:01:01;;;;;;;0.30;0.30;;;;;;;;;;7395413;19;20356;-88
2023/08/29 12:03:28;;;;;;;0.50;0.50;;;;;;;;;;7394879;19;20356;-86
2023/08/29 12:05:59;;;;;;;0.60;0.60;;;;;;;;;;7398869;19;20419;-87
2023/08/29 12:08:35;;;;;;;0.30;0.30;;;;;;;;;;7397200;19;20338;-88
2023/08/29 12:11:02;;;;;;;0.30;0.30;;;;;;;;;;7395547;19;20901;-88
2023/08/29 12:13:29;;;;;;;0.43;0.43;;;;;;;;;;7396471;19;20442;-88
2023/08/29 12:15:56;;;;;;;0.30;0.30;;;;;;;;;;7393602;19;20451;-88
2023/08/29 12:18:25;;;;;;;0.20;0.20;;;;;;;;;;7393698;19;20363;-89
2023/08/29 12:21:17;;;;;;;0.30;0.30;;;;;;;;;;7390402;19;20404;-88
2023/08/29 12:23:45;;;;;;;0.60;0.60;;;;;;;;;;7397640;19;20779;-87
2023/08/29 12:26:12;;;;;;;0.40;0.40;;;;;;;;;;7397752;19;20997;-88
2023/08/29 12:28:39;;;;;;;0.30;0.30;;;;;;;;;;7393606;19;20352;-86
2023/08/29 12:31:07;;;;;;;0.70;0.40;;;;;;;;;;7395660;19;20360;-87
2023/08/29 12:33:35;;;;;;;0.40;0.40;;;;;;;;;;7394795;19;20348;-87
2023/08/29 12:36:02;;;;;;;0.30;0.30;;;;;;;;;;7392393;19;20367;-88
2023/08/29 12:38:30;;;;;;;0.37;0.37;;;;;;;;;;7394723;19;20381;-87
2023/08/29 12:40:57;;;;;;;0.50;0.50;;;;;;;;;;7396696;19;20375;-87
2023/08/29 12:43:24;;;;;;;0.40;0.40;;;;;;;;;;7394253;19;20351;-87
2023/08/29 12:45:50;;;;;;;0.30;0.30;;;;;;;;;;7398041;19;20728;-88
2023/08/29 12:48:25;;;;;;;0.40;0.40;;;;;;;;;;7395131;19;20337;-89
2023/08/29 12:50:52;;;;;;;0.40;0.40;;;;;;;;;;7395465;19;20377;-88
2023/08/29 12:53:19;;;;;;;0.40;0.40;;;;;;;;;;7396200;19;20356;-87
2023/08/29 12:55:45;;;;;;;0.35;0.35;;;;;;;;;;7394265;19;20345;-87
2023/08/29 12:58:17;;;;;;;0.50;0.50;;;;;;;;;;7393564;19;20356;-88
2023/08/29 13:00:45;;;;;;;0.60;0.60;;;;;;;;;;7394287;19;20381;-88
2023/08/29 13:03:11;;;;;;;0.28;0.28;;;;;;;;;;7393556;19;20368;-86
2023/08/29 13:05:38;;;;;;;0.40;0.40;;;;;;;;;;7395887;19;20972;-87
2023/08/29 13:08:07;;;;;;;0.40;0.40;;;;;;;;;;7391787;19;20346;-88
2023/08/29 13:10:35;;;;;;;0.30;0.30;;;;;;;;;;7391459;19;20351;-87
2023/08/29 13:13:01;;;;;;;0.30;0.30;;;;;;;;;;7395332;19;20440;-87
2023/08/29 13:15:29;;;;;;;0.40;0.40;;;;;;;;;;7394600;19;20348;-87
2023/08/29 13:18:14;;;;;;;0.65;0.65;;;;;;;;;;7391462;19;20365;-87
2023/08/29 13:20:43;;;;;;;0.28;0.28;;;;;;;;;;7412554;19;20352;-86
2023/08/29 13:23:10;;;;;;;0.30;0.30;;;;;;;;;;7404230;19;20947;-86
2023/08/29 13:25:36;;;;;;;0.30;0.30;;;;;;;;;;7394129;19;20344;-86
2023/08/29 13:28:03;;;;;;;0.50;0.50;;;;;;;;;;7389602;19;20363;-87
2023/08/29 13:30:32;;;;;;;0.40;0.40;;;;;;;;;;7393264;19;20893;-87
2023/08/29 13:32:59;;;;;;;0.30;0.30;;;;;;;;;;7392719;19;20352;-86
2023/08/29 13:35:25;;;;;;;0.22;0.22;;;;;;;;;;7394280;19;20341;-86
2023/08/29 13:37:52;;;;;;;0.40;0.40;;;;;;;;;;7391664;19;20344;-87
2023/08/29 13:40:20;;;;;;;0.47;0.47;;;;;;;;;;7393088;19;20340;-84
2023/08/29 13:42:49;;;;;;;0.40;0.40;;;;;;;;;;7390998;19;20356;-85
2023/08/29 13:45:16;;;;;;;0.30;0.30;;;;;;;;;;7392817;19;20348;-86
2023/08/29 13:47:44;;;;;;;0.40;0.40;;;;;;;;;;7387034;19;20369;-87
2023/08/29 13:50:11;;;;;;;0.40;0.40;;;;;;;;;;7398484;19;20364;-83
2023/08/29 13:52:38;;;;;;;0.30;0.30;;;;;;;;;;7410681;19;20356;-84
2023/08/29 13:55:04;;;;;;;0.30;0.30;;;;;;;;;;7410117;19;20475;-86
2023/08/29 13:57:31;;;;;;;0.40;0.40;;;;;;;;;;7412404;19;20360;-87
2023/08/29 13:59:58;;;;;;;0.32;0.32;;;;;;;;;;7390476;19;20706;-88
2023/08/29 14:02:25;;;;;;;0.30;0.30;;;;;;;;;;7392999;19;20430;-87
2023/08/29 14:04:51;;;;;;;0.30;0.30;;;;;;;;;;7388326;19;20337;-88
2023/08/29 14:07:18;;;;;;;0.40;0.40;;;;;;;;;;7389159;19;20341;-88
2023/08/29 14:09:45;;;;;;;0.40;0.40;;;;;;;;;;7394029;19;20337;-87
2023/08/29 14:12:11;;;;;;;0.45;0.45;;;;;;;;;;7393577;19;20341;-88
2023/08/29 14:14:38;;;;;;;0.30;0.30;;;;;;;;;;7392886;19;20424;-87
2023/08/29 14:17:05;;;;;;;0.30;0.30;;;;;;;;;;7392143;19;20408;-87
2023/08/29 14:19:32;;;;;;;0.50;0.50;;;;;;;;;;7388981;19;20345;-88
2023/08/29 14:21:58;;;;;;;0.40;0.40;;;;;;;;;;7392120;19;20926;-88
2023/08/29 14:24:27;;;;;;;0.30;0.30;;;;;;;;;;7391343;19;20373;-87
2023/08/29 14:26:54;;;;;;;0.30;0.30;;;;;;;;;;7389715;19;20397;-88
2023/08/29 14:29:21;;;;;;;0.30;0.30;;;;;;;;;;7390039;19;20393;-86
2023/08/29 14:31:47;;;;;;;0.40;0.40;;;;;;;;;;7389683;19;20397;-87
2023/08/29 14:34:14;;;;;;;0.40;0.40;;;;;;;;;;7392746;19;20427;-88
2023/08/29 14:36:41;;;;;;;0.50;0.50;;;;;;;;;;7390660;19;20388;-88
2023/08/29 14:39:08;;;;;;;0.30;0.30;;;;;;;;;;7389264;19;20887;-87
2023/08/29 14:41:35;;;;;;;0.50;0.50;;;;;;;;;;7392707;19;20436;-88
2023/08/29 14:44:01;;;;;;;0.80;0.80;;;;;;;;;;7390666;19;20366;-87
2023/08/29 14:46:28;;;;;;;0.50;0.50;;;;;;;;;;7390494;19;20360;-88
2023/08/29 14:48:56;;;;;;;0.30;0.30;;;;;;;;;;7390084;19;20369;-87
2023/08/29 14:51:23;;;;;;;0.43;0.43;;;;;;;;;;7388577;19;20972;-88
2023/08/29 14:53:50;;;;;;;0.28;0.28;;;;;;;;;;7394319;19;20356;-87
2023/08/29 14:56:17;;;;;;;0.30;0.30;;;;;;;;;;7395740;19;20352;-87
2023/08/29 14:58:47;;;;;;;0.43;0.43;;;;;;;;;;7394771;19;20375;-87
2023/08/29 15:01:14;;;;;;;0.50;0.50;;;;;;;;;;7395833;19;20356;-88
2023/08/29 15:03:40;;;;;;;0.40;0.40;;;;;;;;;;7399669;19;20353;-88
2023/08/29 15:06:10;;;;;;;0.38;0.38;;;;;;;;;;7392418;19;20348;-87
2023/08/29 15:08:37;;;;;;;0.40;0.40;;;;;;;;;;7397486;19;20436;-87
